Time;durP1;ratioP1;P1;durP2;ratioP2;P2;SDS_P1;SDS_P2;PMS_P1;PMS_P2;Temp;Humidity;BMP_temperature;BMP_pressure;BME280_temperature;BME280_humidity;BME280_pressure;Samples;Min_cycle;Max_cycle;Signal;HPM_P1;HPM_P2
2021/01/16 00:00:46;;;;;;;;;;;;;;;20.51;33.61;100805.78;5020393;28;884;-52
2021/01/16 00:03:12;;;;;;;;;;;;;;;19.69;35.26;100809.59;5037994;28;1989;-56
2021/01/16 00:05:37;;;;;;;;;;;;;;;19.87;34.84;100810.81;5037987;28;851;-55
2021/01/16 00:08:06;;;;;;;;;;;;;;;20.64;33.52;100804.19;5037866;28;1021;-52
2021/01/16 00:10:35;;;;;;;;;;;;;;;20.27;34.26;100806.69;5037381;28;859;-57
2021/01/16 00:13:01;;;;;;;;;;;;;;;20.20;34.04;100810.91;5037928;28;835;-52
2021/01/16 00:15:26;;;;;;;;;;;;;;;19.80;34.77;100811.16;5037900;28;816;-54
2021/01/16 00:18:05;;;;;;;;;;;;;;;19.63;35.22;100806.09;5046510;28;1183;-50
2021/01/16 00:20:34;;;;;;;;;;;;;;;20.54;33.64;100809.84;5057807;28;736;-49
2021/01/16 00:22:59;;;;;;;;;;;;;;;20.73;33.08;100805.16;5057133;28;1913;-53
2021/01/16 00:25:25;;;;;;;;;;;;;;;20.08;34.49;100808.59;5057267;28;759;-52
2021/01/16 00:27:50;;;;;;;;;;;;;;;19.93;34.71;100810.41;5039721;28;2023;-49
2021/01/16 00:30:17;;;;;;;;;;;;;;;19.72;35.02;100807.06;5057722;28;776;-49
2021/01/16 00:32:42;;;;;;;;;;;;;;;20.55;33.42;100805.97;5057098;28;832;-52
2021/01/16 00:35:08;;;;;;;;;;;;;;;20.78;32.90;100804.28;5057533;28;867;-59
2021/01/16 00:37:34;;;;;;;;;;;;;;;20.06;34.41;100797.81;5049575;28;919;-49
2021/01/16 00:40:00;;;;;;;;;;;;;;;19.89;34.56;100805.78;5037292;28;815;-49
2021/01/16 00:42:25;;;;;;;;;;;;;;;19.68;35.36;100797.72;5037423;28;1917;-47
2021/01/16 00:44:51;;;;;;;;;;;;;;;20.44;33.82;100799.78;5037363;28;772;-58
2021/01/16 00:47:16;;;;;;;;;;;;;;;20.60;33.54;100794.88;5037002;28;760;-50
2021/01/16 00:49:41;;;;;;;;;;;;;;;20.24;33.93;100792.63;5037377;28;820;-49
2021/01/16 00:52:07;;;;;;;;;;;;;;;20.08;34.43;100792.84;5037268;28;1083;-51
2021/01/16 00:54:32;;;;;;;;;;;;;;;19.73;35.16;100785.84;5002808;28;1140;-58
2021/01/16 00:57:03;;;;;;;;;;;;;;;20.50;33.50;100777.31;5019453;28;1397;-57
2021/01/16 00:59:28;;;;;;;;;;;;;;;20.92;32.57;100788.56;5019657;28;1146;-50
2021/01/16 01:01:57;;;;;;;;;;;;;;;20.30;33.91;100783.97;5036801;28;1918;-50
2021/01/16 01:04:23;;;;;;;;;;;;;;;20.18;34.22;100781.66;5019628;28;1249;-57
2021/01/16 01:06:48;;;;;;;;;;;;;;;19.54;35.22;100783.81;5036862;28;967;-57
2021/01/16 01:09:14;;;;;;;;;;;;;;;20.30;34.12;100781.22;5036502;28;831;-53
2021/01/16 01:11:39;;;;;;;;;;;;;;;20.93;32.69;100783.84;5036929;28;856;-57
2021/01/16 01:14:04;;;;;;;;;;;;;;;20.32;33.76;100769.88;5036819;28;789;-48
2021/01/16 01:16:30;;;;;;;;;;;;;;;20.11;34.13;100770.16;5036372;28;514;-49
2021/01/16 01:18:55;;;;;;;;;;;;;;;19.51;35.13;100754.06;5054466;28;1215;-58
2021/01/16 01:21:21;;;;;;;;;;;;;;;20.29;33.93;100759.44;5056512;28;1975;-58
2021/01/16 01:23:47;;;;;;;;;;;;;;;20.92;32.73;100749.03;5037437;28;1112;-59
2021/01/16 01:26:12;;;;;;;;;;;;;;;20.26;33.85;100748.97;5036602;28;779;-56
2021/01/16 01:28:37;;;;;;;;;;;;;;;20.12;34.37;100746.97;5036398;28;785;-52
2021/01/16 01:31:03;;;;;;;;;;;;;;;19.42;35.51;100748.41;5036305;28;748;-52
2021/01/16 01:33:28;;;;;;;;;;;;;;;20.05;34.48;100754.81;5037213;28;744;-48
2021/01/16 01:35:54;;;;;;;;;;;;;;;20.82;32.90;100750.84;5036245;28;795;-48
2021/01/16 01:38:19;;;;;;;;;;;;;;;20.17;33.86;100751.59;5035890;28;983;-57
2021/01/16 01:40:45;;;;;;;;;;;;;;;20.20;33.94;100755.69;5036478;28;768;-50
2021/01/16 01:43:10;;;;;;;;;;;;;;;19.46;35.42;100754.97;5036188;28;1906;-57
2021/01/16 01:45:35;;;;;;;;;;;;;;;20.02;34.55;100743.53;5018275;28;1349;-56
2021/01/16 01:48:01;;;;;;;;;;;;;;;20.67;33.38;100742.81;5036409;28;836;-52
2021/01/16 01:50:26;;;;;;;;;;;;;;;20.36;33.63;100743.31;5036223;28;769;-49
2021/01/16 01:52:52;;;;;;;;;;;;;;;20.25;33.92;100741.81;5018047;28;1327;-58
2021/01/16 01:55:17;;;;;;;;;;;;;;;19.78;34.77;100742.44;5018587;28;760;-51
2021/01/16 01:57:43;;;;;;;;;;;;;;;20.39;34.00;100747.41;5036034;28;748;-57
2021/01/16 02:00:09;;;;;;;;;;;;;;;20.81;32.80;100732.63;5035977;28;739;-58
2021/01/16 02:02:39;;;;;;;;;;;;;;;20.18;34.10;100729.19;5036127;28;1906;-59
2021/01/16 02:05:05;;;;;;;;;;;;;;;19.91;34.43;100738.16;5018700;28;763;-48
2021/01/16 02:07:39;;;;;;;;;;;;;;;19.26;35.88;100736.69;5035486;28;983;-57
2021/01/16 02:10:12;;;;;;;;;;;;;;;20.04;34.42;100736.59;5036081;28;847;-50
2021/01/16 02:12:38;;;;;;;;;;;;;;;20.77;33.22;100734.34;5036055;28;728;-48
2021/01/16 02:15:10;;;;;;;;;;;;;;;20.17;34.02;100733.09;5035703;28;760;-59
2021/01/16 02:17:36;;;;;;;;;;;;;;;20.08;34.09;100731.31;5042333;28;1175;-59
2021/01/16 02:20:06;;;;;;;;;;;;;;;19.42;35.50;100723.59;5038694;28;772;-59
2021/01/16 02:22:32;;;;;;;;;;;;;;;19.90;34.56;100713.63;5048016;28;1977;-48
2021/01/16 02:25:06;;;;;;;;;;;;;;;20.64;33.32;100715.78;5017996;28;1267;-54
2021/01/16 02:27:41;;;;;;;;;;;;;;;20.84;32.90;100714.63;5018404;28;796;-58
2021/01/16 02:30:07;;;;;;;;;;;;;;;20.08;34.25;100717.50;5017995;28;741;-58
2021/01/16 02:32:32;;;;;;;;;;;;;;;19.65;34.90;100729.38;5018267;28;784;-47
2021/01/16 02:34:58;;;;;;;;;;;;;;;19.25;36.01;100734.25;5021171;28;544;-58
2021/01/16 02:37:23;;;;;;;;;;;;;;;20.21;34.03;100729.72;5021572;28;982;-48
2021/01/16 02:40:02;;;;;;;;;;;;;;;20.83;32.79;100730.41;5039696;28;832;-47
2021/01/16 02:42:32;;;;;;;;;;;;;;;20.23;34.04;100721.97;5022077;28;1983;-57
2021/01/16 02:44:59;;;;;;;;;;;;;;;19.79;34.81;100713.75;5022106;28;767;-51
2021/01/16 02:47:39;;;;;;;;;;;;;;;19.47;35.27;100712.50;5022061;28;820;-57
2021/01/16 02:50:05;;;;;;;;;;;;;;;20.38;33.61;100713.44;5039558;28;792;-57
2021/01/16 02:52:31;;;;;;;;;;;;;;;20.85;32.71;100714.31;5038790;28;951;-48
2021/01/16 02:54:57;;;;;;;;;;;;;;;20.23;33.87;100708.16;5039780;28;764;-50
2021/01/16 02:57:22;;;;;;;;;;;;;;;20.04;34.01;100702.66;5022098;28;860;-51
2021/01/16 02:59:48;;;;;;;;;;;;;;;19.45;35.26;100703.69;5038985;28;783;-54
2021/01/16 03:02:16;;;;;;;;;;;;;;;20.15;34.19;100699.44;5039295;28;1972;-59
2021/01/16 03:04:42;;;;;;;;;;;;;;;20.81;33.01;100705.00;5039474;28;752;-58
2021/01/16 03:07:08;;;;;;;;;;;;;;;20.18;33.98;100698.81;5038790;28;955;-58
2021/01/16 03:09:34;;;;;;;;;;;;;;;20.03;34.15;100704.56;5039291;28;828;-52
2021/01/16 03:11:59;;;;;;;;;;;;;;;19.59;34.95;100697.47;5039156;28;816;-57
2021/01/16 03:14:26;;;;;;;;;;;;;;;20.16;33.98;100701.09;5038561;28;851;-49
2021/01/16 03:16:57;;;;;;;;;;;;;;;20.74;33.08;100699.03;5039682;28;1526;-51
2021/01/16 03:19:24;;;;;;;;;;;;;;;20.16;34.09;100697.47;5058784;28;831;-52
2021/01/16 03:21:49;;;;;;;;;;;;;;;20.17;34.10;100691.69;5057326;28;1977;-58
2021/01/16 03:24:15;;;;;;;;;;;;;;;19.48;35.18;100685.72;5038831;28;1097;-50
2021/01/16 03:26:40;;;;;;;;;;;;;;;20.06;34.23;100683.84;5038790;28;795;-52
2021/01/16 03:29:05;;;;;;;;;;;;;;;20.64;32.95;100685.41;5038602;28;769;-55
2021/01/16 03:31:31;;;;;;;;;;;;;;;20.20;33.78;100683.91;5038726;28;760;-59
2021/01/16 03:33:56;;;;;;;;;;;;;;;19.99;34.11;100684.22;5038848;28;804;-47
2021/01/16 03:36:22;;;;;;;;;;;;;;;19.51;35.08;100684.31;5038457;28;804;-58
2021/01/16 03:38:47;;;;;;;;;;;;;;;20.06;34.26;100684.66;5038579;28;931;-56
2021/01/16 03:41:12;;;;;;;;;;;;;;;20.75;32.78;100688.81;5038791;28;1910;-55
2021/01/16 03:43:38;;;;;;;;;;;;;;;20.12;34.04;100689.00;5038469;28;856;-58
2021/01/16 03:46:03;;;;;;;;;;;;;;;20.06;33.96;100681.09;5037510;28;764;-49
2021/01/16 03:48:29;;;;;;;;;;;;;;;19.62;34.91;100683.88;5038392;28;784;-58
2021/01/16 03:50:54;;;;;;;;;;;;;;;20.49;33.24;100689.22;5038739;28;806;-51
2021/01/16 03:53:20;;;;;;;;;;;;;;;20.87;32.62;100686.38;5038068;28;1026;-58
2021/01/16 03:55:45;;;;;;;;;;;;;;;20.32;33.41;100692.56;5038260;28;832;-51
2021/01/16 03:58:11;;;;;;;;;;;;;;;20.14;33.77;100692.25;5038013;28;791;-58
2021/01/16 04:00:36;;;;;;;;;;;;;;;19.50;35.23;100689.00;5038183;28;862;-48
2021/01/16 04:03:01;;;;;;;;;;;;;;;19.98;34.21;100693.63;5038370;28;1919;-58
2021/01/16 04:05:27;;;;;;;;;;;;;;;20.78;32.92;100694.56;5037821;28;847;-49
2021/01/16 04:07:52;;;;;;;;;;;;;;;20.33;33.36;100692.25;5037714;28;967;-59
2021/01/16 04:10:18;;;;;;;;;;;;;;;20.05;33.96;100688.56;5038394;28;752;-59
2021/01/16 04:12:43;;;;;;;;;;;;;;;19.47;35.09;100687.69;5037651;28;815;-60
2021/01/16 04:15:09;;;;;;;;;;;;;;;20.11;34.02;100692.06;5037782;28;792;-59
2021/01/16 04:17:34;;;;;;;;;;;;;;;20.78;32.74;100683.50;5044521;28;1127;-58
2021/01/16 04:19:59;;;;;;;;;;;;;;;20.25;33.62;100686.59;5057950;28;819;-58
2021/01/16 04:22:25;;;;;;;;;;;;;;;20.12;33.89;100691.75;5057471;28;1910;-53
2021/01/16 04:24:50;;;;;;;;;;;;;;;19.63;34.63;100684.72;5057517;28;1187;-53
2021/01/16 04:27:16;;;;;;;;;;;;;;;20.17;33.90;100691.69;5057269;28;874;-57
2021/01/16 04:29:41;;;;;;;;;;;;;;;20.81;32.68;100682.88;5057779;28;827;-51
2021/01/16 04:32:07;;;;;;;;;;;;;;;20.21;33.65;100685.56;5057640;28;855;-50
2021/01/16 04:34:32;;;;;;;;;;;;;;;20.14;34.00;100683.97;5057345;28;871;-59
2021/01/16 04:36:57;;;;;;;;;;;;;;;19.46;34.90;100683.28;5054329;28;962;-55
2021/01/16 04:39:23;;;;;;;;;;;;;;;20.23;33.73;100686.06;5037639;28;677;-56
2021/01/16 04:41:48;;;;;;;;;;;;;;;20.82;32.41;100676.25;5037313;28;1907;-46
2021/01/16 04:44:14;;;;;;;;;;;;;;;20.38;33.18;100674.75;5019345;28;883;-59
2021/01/16 04:46:39;;;;;;;;;;;;;;;19.97;33.99;100670.72;5037390;28;748;-58
2021/01/16 04:49:05;;;;;;;;;;;;;;;19.79;34.48;100671.50;5019865;28;773;-59
2021/01/16 04:51:31;;;;;;;;;;;;;;;20.39;32.27;100681.94;5037222;28;824;-52
2021/01/16 04:53:57;;;;;;;;;;;;;;;20.36;31.92;100677.03;5037025;28;990;-58
2021/01/16 04:56:23;;;;;;;;;;;;;;;20.16;32.41;100679.00;5019244;28;1309;-59
2021/01/16 04:58:48;;;;;;;;;;;;;;;19.53;33.47;100668.28;5036730;28;773;-58
2021/01/16 05:01:13;;;;;;;;;;;;;;;19.25;33.83;100670.84;5019496;28;792;-56
2021/01/16 05:03:41;;;;;;;;;;;;;;;20.24;32.05;100666.44;5037076;28;1906;-50
2021/01/16 05:06:11;;;;;;;;;;;;;;;20.82;31.06;100667.16;5036722;28;883;-60
2021/01/16 05:08:37;;;;;;;;;;;;;;;20.10;32.31;100669.13;5053476;28;955;-49
2021/01/16 05:11:04;;;;;;;;;;;;;;;19.83;32.85;100667.88;5057066;28;872;-54
2021/01/16 05:13:35;;;;;;;;;;;;;;;19.64;33.47;100672.53;5057179;28;1073;-49
2021/01/16 05:16:01;;;;;;;;;;;;;;;20.56;32.03;100669.50;5039293;28;827;-45
2021/01/16 05:18:26;;;;;;;;;;;;;;;20.48;31.85;100662.72;5039148;28;1211;-53
2021/01/16 05:20:52;;;;;;;;;;;;;;;20.07;32.64;100669.75;5038964;28;815;-50
2021/01/16 05:23:17;;;;;;;;;;;;;;;19.62;33.48;100669.28;5052931;28;1914;-52
2021/01/16 05:25:50;;;;;;;;;;;;;;;19.87;33.16;100670.88;5056249;28;879;-49
2021/01/16 05:28:16;;;;;;;;;;;;;;;20.70;31.85;100664.03;5056349;28;748;-52
2021/01/16 05:30:48;;;;;;;;;;;;;;;20.23;32.46;100672.25;5056522;28;898;-51
2021/01/16 05:33:14;;;;;;;;;;;;;;;19.94;33.04;100665.81;5056782;28;827;-62
2021/01/16 05:35:39;;;;;;;;;;;;;;;19.61;33.66;100673.94;5056687;28;779;-49
2021/01/16 05:38:05;;;;;;;;;;;;;;;20.02;33.01;100667.09;5044307;28;927;-49
2021/01/16 05:40:30;;;;;;;;;;;;;;;20.68;31.96;100670.69;5019204;28;767;-52
2021/01/16 05:42:57;;;;;;;;;;;;;;;21.16;31.06;100666.72;5036202;28;1979;-57
2021/01/16 05:45:23;;;;;;;;;;;;;;;20.99;31.38;100666.53;5018836;28;775;-47
2021/01/16 05:47:48;;;;;;;;;;;;;;;20.43;32.24;100665.59;5018867;28;796;-51
2021/01/16 05:50:14;;;;;;;;;;;;;;;19.96;33.07;100669.09;5036179;28;792;-55
2021/01/16 05:52:39;;;;;;;;;;;;;;;19.63;33.95;100681.97;5043661;28;975;-48
2021/01/16 05:55:05;;;;;;;;;;;;;;;20.04;33.03;100673.09;5056417;28;803;-50
2021/01/16 05:57:30;;;;;;;;;;;;;;;20.92;31.61;100671.66;5038772;28;740;-50
2021/01/16 05:59:59;;;;;;;;;;;;;;;20.55;31.99;100663.16;5056212;28;875;-49
2021/01/16 06:02:26;;;;;;;;;;;;;;;20.12;33.07;100663.34;5056226;28;1910;-54
2021/01/16 06:04:51;;;;;;;;;;;;;;;19.71;33.77;100661.16;5038212;28;748;-50
2021/01/16 06:07:18;;;;;;;;;;;;;;;19.43;34.24;100664.56;5038244;28;975;-47
2021/01/16 06:09:43;;;;;;;;;;;;;;;20.34;32.59;100663.53;5043414;28;1461;-50
2021/01/16 06:12:09;;;;;;;;;;;;;;;20.56;32.20;100652.94;5062480;28;732;-49
2021/01/16 06:14:42;;;;;;;;;;;;;;;20.03;33.29;100656.84;5062707;28;863;-46
2021/01/16 06:17:08;;;;;;;;;;;;;;;19.88;33.58;100661.50;5062868;28;1099;-47
2021/01/16 06:19:33;;;;;;;;;;;;;;;19.27;34.75;100658.41;5062390;28;771;-49
2021/01/16 06:21:58;;;;;;;;;;;;;;;20.33;32.88;100667.41;5042003;28;1914;-50
2021/01/16 06:24:24;;;;;;;;;;;;;;;20.99;31.69;100669.31;5025072;28;1021;-51
2021/01/16 06:26:53;;;;;;;;;;;;;;;20.46;32.60;100667.75;5042182;28;767;-50
2021/01/16 06:29:28;;;;;;;;;;;;;;;20.29;32.92;100665.56;5042822;28;755;-48
2021/01/16 06:32:02;;;;;;;;;;;;;;;19.62;33.97;100670.09;5042641;28;811;-54
2021/01/16 06:34:30;;;;;;;;;;;;;;;20.20;33.16;100662.63;5042774;28;791;-46
2021/01/16 06:37:03;;;;;;;;;;;;;;;20.92;31.93;100666.94;5042463;28;935;-48
2021/01/16 06:39:28;;;;;;;;;;;;;;;20.08;33.46;100679.66;5042644;28;779;-46
2021/01/16 06:41:54;;;;;;;;;;;;;;;20.05;33.26;100672.00;5042067;28;1909;-49
2021/01/16 06:44:19;;;;;;;;;;;;;;;19.50;34.21;100672.44;5024910;28;925;-48
2021/01/16 06:46:44;;;;;;;;;;;;;;;20.13;33.45;100668.56;5054057;28;883;-59
2021/01/16 06:49:23;;;;;;;;;;;;;;;20.77;31.90;100670.00;5061944;28;806;-52
2021/01/16 06:51:49;;;;;;;;;;;;;;;20.29;32.86;100676.59;5060801;28;922;-53
2021/01/16 06:54:14;;;;;;;;;;;;;;;20.15;33.06;100684.81;5024244;28;820;-54
2021/01/16 06:56:40;;;;;;;;;;;;;;;19.45;34.39;100689.91;5024608;28;768;-49
2021/01/16 06:59:11;;;;;;;;;;;;;;;20.05;33.31;100688.56;5024878;28;764;-55
2021/01/16 07:01:37;;;;;;;;;;;;;;;20.83;32.00;100686.19;5042404;28;1983;-49
2021/01/16 07:04:03;;;;;;;;;;;;;;;20.09;33.14;100684.06;5024337;28;768;-64
2021/01/16 07:06:29;;;;;;;;;;;;;;;19.91;33.55;100691.25;5042687;28;756;-60
2021/01/16 07:08:54;;;;;;;;;;;;;;;19.60;34.26;100694.41;5024170;28;944;-51
2021/01/16 07:11:20;;;;;;;;;;;;;;;19.92;33.97;100703.09;5024483;28;906;-61
2021/01/16 07:13:45;;;;;;;;;;;;;;;20.67;32.23;100693.06;5042357;28;827;-61
2021/01/16 07:16:11;;;;;;;;;;;;;;;20.23;32.98;100695.19;5042131;28;740;-61
2021/01/16 07:18:37;;;;;;;;;;;;;;;19.98;33.47;100705.50;5056387;28;1116;-47
2021/01/16 07:21:03;;;;;;;;;;;;;;;19.58;34.23;100701.31;5041497;28;780;-62
2021/01/16 07:23:28;;;;;;;;;;;;;;;19.39;34.84;100702.13;5043501;28;1913;-56
2021/01/16 07:25:54;;;;;;;;;;;;;;;20.42;32.85;100708.94;5038981;28;752;-56
2021/01/16 07:28:20;;;;;;;;;;;;;;;20.82;32.15;100695.59;5038612;28;795;-48
2021/01/16 07:30:46;;;;;;;;;;;;;;;20.11;33.24;100695.63;5039050;28;808;-47
2021/01/16 07:33:11;;;;;;;;;;;;;;;20.07;33.35;100707.56;5020931;28;747;-58
2021/01/16 07:35:37;;;;;;;;;;;;;;;19.40;34.48;100709.25;5038789;28;729;-52
2021/01/16 07:38:02;;;;;;;;;;;;;;;20.25;33.14;100703.97;5020592;28;881;-46
2021/01/16 07:40:28;;;;;;;;;;;;;;;20.74;32.08;100698.25;5021008;28;788;-50
2021/01/16 07:43:10;;;;;;;;;;;;;;;20.18;33.19;100709.06;5038688;28;1969;-48
2021/01/16 07:45:39;;;;;;;;;;;;;;;19.91;33.55;100698.69;5020769;28;1462;-46
2021/01/16 07:48:05;;;;;;;;;;;;;;;19.33;34.87;100711.53;5038251;28;871;-46
2021/01/16 07:50:31;;;;;;;;;;;;;;;20.26;33.24;100702.03;5046710;28;829;-46
2021/01/16 07:52:56;;;;;;;;;;;;;;;20.83;32.12;100702.75;5047980;28;966;-57
2021/01/16 07:55:25;;;;;;;;;;;;;;;20.24;32.92;100707.84;5054844;28;993;-47
2021/01/16 07:57:51;;;;;;;;;;;;;;;19.97;33.41;100706.59;5058474;28;996;-57
2021/01/16 08:00:17;;;;;;;;;;;;;;;19.70;34.21;100715.50;5039171;28;867;-50
2021/01/16 08:02:48;;;;;;;;;;;;;;;20.42;32.89;100706.19;5057829;28;1906;-55
2021/01/16 08:05:24;;;;;;;;;;;;;;;20.83;32.15;100702.75;5058111;28;847;-50
2021/01/16 08:08:13;;;;;;;;;;;;;;;20.34;32.95;100706.88;5048311;28;947;-52
2021/01/16 08:10:38;;;;;;;;;;;;;;;19.70;34.02;100698.97;5029852;28;975;-49
2021/01/16 08:13:06;;;;;;;;;;;;;;;19.52;34.46;100702.50;5020231;28;823;-47
2021/01/16 08:15:31;;;;;;;;;;;;;;;20.50;32.58;100694.44;5020845;28;799;-50
2021/01/16 08:17:58;;;;;;;;;;;;;;;20.94;31.80;100697.03;5047003;28;1096;-51
2021/01/16 08:20:27;;;;;;;;;;;;;;;20.27;32.82;100699.00;5058132;28;810;-47
2021/01/16 08:22:55;;;;;;;;;;;;;;;19.97;33.42;100692.00;5046902;28;1973;-50
2021/01/16 08:25:22;;;;;;;;;;;;;;;19.40;34.71;100695.47;5037398;28;740;-54
2021/01/16 08:27:49;;;;;;;;;;;;;;;19.96;33.66;100693.94;5037732;28;796;-56
2021/01/16 08:30:18;;;;;;;;;;;;;;;20.78;32.02;100688.22;5037877;28;748;-57
2021/01/16 08:32:52;;;;;;;;;;;;;;;20.41;32.58;100693.50;5042900;28;748;-60
2021/01/16 08:35:22;;;;;;;;;;;;;;;20.20;33.22;100690.25;5057912;28;784;-59
2021/01/16 08:37:47;;;;;;;;;;;;;;;19.83;33.66;100687.19;5047850;28;915;-49
2021/01/16 08:40:13;;;;;;;;;;;;;;;19.60;34.29;100682.53;5037141;28;800;-55
2021/01/16 08:42:51;;;;;;;;;;;;;;;20.58;32.43;100683.81;5037586;28;1957;-52
2021/01/16 08:45:16;;;;;;;;;;;;;;;20.60;32.21;100681.59;5037478;28;823;-57
2021/01/16 08:47:51;;;;;;;;;;;;;;;20.31;32.88;100693.66;5037616;28;815;-56
2021/01/16 08:50:17;;;;;;;;;;;;;;;19.99;33.38;100684.22;5037310;28;524;-54
2021/01/16 08:52:42;;;;;;;;;;;;;;;19.46;34.45;100682.44;5038209;28;919;-58
2021/01/16 08:55:08;;;;;;;;;;;;;;;20.28;32.86;100675.75;5056059;28;828;-58
2021/01/16 08:57:34;;;;;;;;;;;;;;;20.80;32.24;100666.59;5057250;28;787;-49
2021/01/16 09:00:32;;;;;;;;;;;;;;;20.24;33.00;100663.66;5057130;28;799;-57
2021/01/16 09:03:11;;;;;;;;;;;;;;;19.74;34.08;100655.88;5044604;28;1914;-49
2021/01/16 09:05:37;;;;;;;;;;;;;;;19.44;34.34;100657.09;5057138;28;740;-57
2021/01/16 09:08:03;;;;;;;;;;;;;;;20.25;33.14;100664.50;5045314;28;946;-50
2021/01/16 09:10:29;;;;;;;;;;;;;;;20.73;32.35;100655.94;5036664;28;791;-53
2021/01/16 09:12:54;;;;;;;;;;;;;;;20.10;33.18;100660.03;5037011;28;772;-59
2021/01/16 09:15:26;;;;;;;;;;;;;;;20.02;33.27;100653.28;5036829;28;875;-59
2021/01/16 09:18:08;;;;;;;;;;;;;;;19.58;34.30;100651.69;5045247;28;1088;-55
2021/01/16 09:20:36;;;;;;;;;;;;;;;20.20;33.00;100643.31;5038634;28;805;-48
2021/01/16 09:23:19;;;;;;;;;;;;;;;20.73;32.29;100639.38;5044905;28;1970;-49
2021/01/16 09:25:48;;;;;;;;;;;;;;;20.20;32.89;100632.25;5036145;28;787;-50
2021/01/16 09:28:14;;;;;;;;;;;;;;;20.11;33.15;100626.63;5054827;28;1204;-58
2021/01/16 09:30:39;;;;;;;;;;;;;;;19.64;34.22;100629.25;5056558;28;807;-51
2021/01/16 09:33:24;;;;;;;;;;;;;;;20.06;33.48;100617.59;5055621;28;824;-50
2021/01/16 09:35:49;;;;;;;;;;;;;;;20.66;32.33;100625.13;5056666;28;751;-50
2021/01/16 09:38:15;;;;;;;;;;;;;;;20.57;32.29;100613.97;5042619;28;1017;-49
2021/01/16 09:40:41;;;;;;;;;;;;;;;20.31;32.91;100602.53;5036897;28;767;-58
2021/01/16 09:43:18;;;;;;;;;;;;;;;20.04;33.17;100597.78;5035661;28;1909;-50
2021/01/16 09:45:57;;;;;;;;;;;;;;;19.46;34.61;100597.78;5036056;28;820;-48
2021/01/16 09:48:44;;;;;;;;;;;;;;;20.46;32.92;100588.47;5036375;28;815;-51
2021/01/16 09:51:10;;;;;;;;;;;;;;;20.80;31.89;100595.59;5036412;28;925;-49
2021/01/16 09:53:35;;;;;;;;;;;;;;;20.23;33.05;100590.28;5051370;28;947;-59
2021/01/16 09:56:01;;;;;;;;;;;;;;;20.03;33.53;100591.41;5055968;28;930;-51
2021/01/16 09:58:30;;;;;;;;;;;;;;;19.53;34.19;100578.13;5037104;28;879;-54
2021/01/16 10:01:14;;;;;;;;;;;;;;;20.21;33.09;100583.41;5055854;28;867;-59
2021/01/16 10:03:40;;;;;;;;;;;;;;;20.88;32.07;100584.94;5056258;28;1910;-51
2021/01/16 10:06:05;;;;;;;;;;;;;;;20.38;32.70;100580.88;5056219;28;779;-58
2021/01/16 10:08:33;;;;;;;;;;;;;;;20.05;33.46;100575.38;5040223;28;962;-48
2021/01/16 10:10:59;;;;;;;;;;;;;;;19.71;34.19;100576.44;5035798;28;842;-51
2021/01/16 10:13:34;;;;;;;;;;;;;;;19.69;34.12;100575.94;5036348;28;724;-51
2021/01/16 10:16:00;;;;;;;;;;;;;;;20.54;32.54;100564.84;5035782;28;851;-49
2021/01/16 10:18:26;;;;;;;;;;;;;;;20.74;32.00;100555.34;5049493;28;1182;-56
2021/01/16 10:21:14;;;;;;;;;;;;;;;20.33;32.95;100556.94;5056028;28;787;-57
2021/01/16 10:23:40;;;;;;;;;;;;;;;19.90;33.48;100554.38;5032943;28;1980;-55
2021/01/16 10:26:07;;;;;;;;;;;;;;;19.56;34.32;100540.81;5017881;28;811;-56
2021/01/16 10:28:36;;;;;;;;;;;;;;;20.45;32.92;100536.28;5036043;28;1052;-55
2021/01/16 10:31:08;;;;;;;;;;;;;;;20.91;31.92;100537.34;5040672;28;841;-57
2021/01/16 10:33:36;;;;;;;;;;;;;;;20.39;32.66;100537.53;5056523;28;803;-55
2021/01/16 10:36:12;;;;;;;;;;;;;;;20.02;33.29;100528.25;5055914;28;716;-53
2021/01/16 10:38:44;;;;;;;;;;;;;;;19.34;34.84;100530.41;5039143;28;1025;-58
2021/01/16 10:41:09;;;;;;;;;;;;;;;20.34;33.08;100528.22;5035942;28;848;-60
2021/01/16 10:43:35;;;;;;;;;;;;;;;20.85;32.17;100512.56;5035674;28;1906;-55
2021/01/16 10:46:30;;;;;;;;;;;;;;;20.44;32.57;100507.88;5035364;28;796;-60
2021/01/16 10:49:22;;;;;;;;;;;;;;;20.41;32.63;100505.72;5035910;28;803;-53
2021/01/16 10:51:54;;;;;;;;;;;;;;;19.65;34.09;100503.16;5032539;28;1516;-57
2021/01/16 10:54:20;;;;;;;;;;;;;;;19.93;33.66;100500.53;5035681;28;816;-57
2021/01/16 10:56:57;;;;;;;;;;;;;;;20.67;32.21;100500.50;5039709;28;760;-50
2021/01/16 10:59:23;;;;;;;;;;;;;;;20.52;32.34;100493.34;5039404;28;857;-49
2021/01/16 11:01:49;;;;;;;;;;;;;;;20.32;32.94;100502.03;5021851;28;1917;-55
2021/01/16 11:04:17;;;;;;;;;;;;;;;19.88;33.88;100495.09;5053675;28;900;-48
2021/01/16 11:06:50;;;;;;;;;;;;;;;19.65;34.33;100490.19;5058527;28;974;-50
2021/01/16 11:09:33;;;;;;;;;;;;;;;20.53;32.59;100488.63;5039265;28;753;-49
2021/01/16 11:12:01;;;;;;;;;;;;;;;20.91;32.04;100471.00;5039253;28;783;-55
2021/01/16 11:14:33;;;;;;;;;;;;;;;20.48;32.48;100473.00;5038756;28;843;-58
2021/01/16 11:16:59;;;;;;;;;;;;;;;20.19;33.16;100467.75;5040772;28;1163;-48
2021/01/16 11:19:25;;;;;;;;;;;;;;;19.57;34.24;100468.00;5059370;28;728;-50
2021/01/16 11:21:56;;;;;;;;;;;;;;;19.76;34.06;100466.00;5037365;28;1954;-56
2021/01/16 11:24:52;;;;;;;;;;;;;;;20.63;32.36;100462.72;5038955;28;1068;-54
2021/01/16 11:27:18;;;;;;;;;;;;;;;20.61;32.47;100451.19;5026360;28;1279;-52
2021/01/16 11:29:44;;;;;;;;;;;;;;;20.44;32.51;100444.34;5038604;28;787;-57
2021/01/16 11:32:16;;;;;;;;;;;;;;;19.97;33.35;100449.94;5038894;28;775;-51
2021/01/16 11:35:00;;;;;;;;;;;;;;;19.66;34.28;100449.66;5038641;28;837;-55
2021/01/16 11:37:44;;;;;;;;;;;;;;;20.64;32.33;100447.81;5051941;28;930;-51
2021/01/16 11:40:28;;;;;;;;;;;;;;;20.59;32.22;100443.19;5038727;28;783;-53
2021/01/16 11:42:54;;;;;;;;;;;;;;;20.47;32.52;100438.19;5038501;28;1914;-50
2021/01/16 11:45:20;;;;;;;;;;;;;;;20.03;33.33;100438.81;5038784;28;764;-57
2021/01/16 11:47:49;;;;;;;;;;;;;;;19.46;34.43;100435.09;5038416;28;883;-54
2021/01/16 11:50:15;;;;;;;;;;;;;;;20.38;32.71;100420.69;5039158;28;756;-50
2021/01/16 11:52:41;;;;;;;;;;;;;;;20.97;31.74;100431.91;5038171;28;920;-48
2021/01/16 11:55:07;;;;;;;;;;;;;;;20.48;32.66;100428.78;5038253;28;760;-55
2021/01/16 11:57:32;;;;;;;;;;;;;;;20.42;32.63;100430.00;5037382;28;859;-53
2021/01/16 11:59:58;;;;;;;;;;;;;;;19.61;33.97;100433.19;5038025;28;860;-57
2021/01/16 12:02:23;;;;;;;;;;;;;;;19.90;33.87;100430.22;5038178;28;1971;-48
2021/01/16 12:04:49;;;;;;;;;;;;;;;20.70;32.21;100427.25;5038430;28;800;-52
2021/01/16 12:07:16;;;;;;;;;;;;;;;21.20;31.46;100429.97;5039590;28;1030;-54
2021/01/16 12:09:42;;;;;;;;;;;;;;;21.36;30.91;100422.13;5058014;28;816;-58
2021/01/16 12:12:08;;;;;;;;;;;;;;;20.71;32.19;100417.03;5058137;28;724;-55
2021/01/16 12:14:34;;;;;;;;;;;;;;;20.66;32.13;100410.47;5056449;28;843;-52
2021/01/16 12:17:00;;;;;;;;;;;;;;;19.66;34.06;100416.56;5058089;28;1099;-57
2021/01/16 12:19:25;;;;;;;;;;;;;;;19.60;34.27;100403.97;5058405;28;780;-54
2021/01/16 12:21:51;;;;;;;;;;;;;;;20.49;32.79;100400.03;5038153;28;1914;-51
2021/01/16 12:24:16;;;;;;;;;;;;;;;20.88;31.82;100399.78;5037662;28;1031;-57
2021/01/16 12:26:43;;;;;;;;;;;;;;;20.37;32.64;100391.47;5020296;28;1470;-52
2021/01/16 12:29:13;;;;;;;;;;;;;;;19.99;33.34;100397.19;5020010;28;1179;-53
2021/01/16 12:31:39;;;;;;;;;;;;;;;19.43;34.54;100405.38;5020212;28;820;-48
2021/01/16 12:34:07;;;;;;;;;;;;;;;19.97;33.82;100400.25;5020069;28;820;-54
2021/01/16 12:36:32;;;;;;;;;;;;;;;20.72;32.07;100407.59;5037230;28;820;-56
2021/01/16 12:38:59;;;;;;;;;;;;;;;20.48;32.41;100397.56;5037436;28;999;-57
2021/01/16 12:41:25;;;;;;;;;;;;;;;20.37;32.60;100397.00;5056898;28;829;-49
2021/01/16 12:43:51;;;;;;;;;;;;;;;19.59;34.05;100399.59;5056794;28;1917;-48
2021/01/16 12:46:20;;;;;;;;;;;;;;;20.06;33.39;100403.13;5057577;28;740;-59
2021/01/16 12:48:46;;;;;;;;;;;;;;;20.74;32.32;100406.16;5057533;28;917;-57
2021/01/16 12:51:14;;;;;;;;;;;;;;;20.57;32.55;100409.53;5056774;28;835;-59
2021/01/16 12:53:43;;;;;;;;;;;;;;;20.42;32.61;100413.44;5040331;28;965;-57
2021/01/16 12:56:13;;;;;;;;;;;;;;;19.76;33.88;100408.09;5037476;28;784;-58
2021/01/16 12:58:39;;;;;;;;;;;;;;;19.40;34.46;100410.66;5019196;28;988;-48